aviador You're here:

PAOO Decoded Metar

TOKSOOK BAY in AK, USA
Report Time2017-05-29 02:56:00
UTC Time2017-05-29 03:54:56
Flight Rules vfr VFR
Wind300° at 15 kt
W.Decomp.*RWY 34: 9.2 kt HW 11.8 kt LCW
W.Rank300° ranks 1
Current wind is above 300° avg. (12.5)
Visibility9999 m
Phenomena:N/A
Clouds:Few 044 Hf
Expected CloudBase > 2,800 ft AGL from Temp-Dew spread
CeilingNone
Temp10°C (ISA -5)
Dew Point03°C (62% RH)
AAT3.1°C
QNH1009 hPa
Density Alt-285 ft
Elevation59 ft
Report Wrong Elevation
Raw Report
PAOO 290256Z AUTO 30015KT 10SM FEW044 10/03 A2981 RMK AO2 SLP105
60000 T01000033 58006=

Extra information for PAOO:More info

Metar Taf Metar & Taf Last 4 Metars F.Rules Stats Wind Profile Meteogram Temp Stats Airport Information Weather charts Add Link Nearby VenuesMetar ALERT Operation Metar Decoded Social comments

AIRNAV info for PAOO